Time;durP1;ratioP1;P1;durP2;ratioP2;P2;SDS_P1;SDS_P2;PMS_P1;PMS_P2;Temp;Humidity;BMP_temperature;BMP_pressure;BME280_temperature;BME280_humidity;BME280_pressure;Samples;Min_cycle;Max_cycle;Signal;HPM_P1;HPM_P2
2021/10/24 00:02:25;;;;;;;18.50;10.35;;;7.50;93.30;;;;;;5009461;28;20045;-75
2021/10/24 00:04:51;;;;;;;21.20;10.35;;;7.50;93.30;;;;;;5007868;28;20040;-75
2021/10/24 00:07:17;;;;;;;16.58;9.50;;;7.50;93.30;;;;;;5042279;28;20021;-75
2021/10/24 00:09:42;;;;;;;17.73;9.60;;;7.50;93.40;;;;;;5026991;28;20112;-75
2021/10/24 00:12:08;;;;;;;14.48;9.43;;;7.40;93.30;;;;;;5009459;28;20430;-75
2021/10/24 00:14:34;;;;;;;16.52;9.10;;;7.40;93.30;;;;;;5026947;28;20034;-75
2021/10/24 00:16:59;;;;;;;12.50;8.88;;;7.40;93.30;;;;;;5027213;28;20522;-75
2021/10/24 00:19:25;;;;;;;25.65;9.68;;;7.40;93.30;;;;;;5026209;28;20044;-75
2021/10/24 00:21:50;;;;;;;14.85;9.35;;;7.40;93.30;;;;;;5009367;28;20038;-75
2021/10/24 00:24:16;;;;;;;13.95;8.85;;;7.30;93.30;;;;;;5026618;28;20366;-75
2021/10/24 00:26:42;;;;;;;16.00;9.68;;;7.30;93.30;;;;;;5009290;28;20044;-75
2021/10/24 00:29:08;;;;;;;16.98;10.00;;;7.30;93.30;;;;;;5026765;28;20659;-75
2021/10/24 00:31:34;;;;;;;16.33;9.75;;;7.30;93.30;;;;;;4992700;28;20037;-75
2021/10/24 00:33:59;;;;;;;16.02;10.15;;;7.30;93.30;;;;;;5023355;28;20500;-75
2021/10/24 00:36:25;;;;;;;18.40;10.00;;;7.20;93.20;;;;;;5008269;28;20037;-75
2021/10/24 00:38:51;;;;;;;14.02;8.88;;;7.20;93.20;;;;;;5008810;28;20038;-75
2021/10/24 00:41:17;;;;;;;15.10;9.43;;;7.20;93.20;;;;;;5026232;28;20022;-75
2021/10/24 00:43:43;;;;;;;14.07;9.45;;;7.20;93.20;;;;;;5008137;28;20092;-75
2021/10/24 00:46:08;;;;;;;14.68;9.88;;;7.20;93.30;;;;;;5025656;28;20469;-75
2021/10/24 00:48:34;;;;;;;20.40;10.18;;;7.20;93.30;;;;;;5007222;28;20029;-75
2021/10/24 00:51:00;;;;;;;15.70;8.82;;;7.10;93.30;;;;;;5024635;28;20029;-75
2021/10/24 00:53:26;;;;;;;15.43;10.40;;;7.10;93.30;;;;;;5007870;28;20029;-75
2021/10/24 00:55:53;;;;;;;18.23;10.27;;;7.10;93.30;;;;;;4991881;28;20034;-75
2021/10/24 00:58:19;;;;;;;16.08;10.68;;;7.10;93.40;;;;;;5026135;28;20033;-75
2021/10/24 01:00:45;;;;;;;15.57;10.63;;;7.10;93.40;;;;;;5026335;28;20036;-75
2021/10/24 01:03:12;;;;;;;21.20;9.75;;;7.20;93.40;;;;;;5007649;28;20109;-75
2021/10/24 01:05:39;;;;;;;19.35;10.30;;;7.10;93.40;;;;;;5009273;28;20029;-75
2021/10/24 01:08:07;;;;;;;16.55;10.48;;;7.10;93.40;;;;;;5009841;28;20497;-75
2021/10/24 01:10:35;;;;;;;15.35;10.32;;;7.10;93.40;;;;;;5007332;28;20044;-72
2021/10/24 01:13:01;;;;;;;15.10;10.38;;;7.10;93.50;;;;;;5042441;28;20544;-72
2021/10/24 01:15:26;;;;;;;15.45;9.30;;;7.20;93.50;;;;;;5041796;28;20052;-72
2021/10/24 01:17:52;;;;;;;18.70;10.07;;;7.10;93.50;;;;;;5009262;28;20405;-72
2021/10/24 01:20:21;;;;;;;15.88;9.40;;;7.10;93.50;;;;;;5028384;28;20044;-72
2021/10/24 01:22:48;;;;;;;13.95;9.43;;;7.10;93.50;;;;;;5011808;28;20047;-71
2021/10/24 01:25:14;;;;;;;16.30;11.20;;;7.10;93.50;;;;;;5029477;28;20034;-72
2021/10/24 01:27:40;;;;;;;22.13;10.43;;;7.10;93.50;;;;;;5011935;28;20691;-72
2021/10/24 01:30:07;;;;;;;10.90;8.95;;;7.00;93.50;;;;;;5011206;28;20116;-72
2021/10/24 01:32:34;;;;;;;16.98;9.75;;;7.00;93.60;;;;;;5028446;28;20104;-72
2021/10/24 01:35:00;;;;;;;12.10;8.60;;;7.10;93.90;;;;;;5028968;28;20025;-71
2021/10/24 01:37:34;;;;;;;12.75;9.50;;;7.10;93.60;;;;;;5027047;28;20036;-72
2021/10/24 01:40:02;;;;;;;15.77;9.25;;;7.10;93.70;;;;;;5010740;28;20116;-72
2021/10/24 01:42:28;;;;;;;15.45;9.02;;;7.00;93.60;;;;;;5011451;28;20040;-71
2021/10/24 01:44:54;;;;;;;16.88;10.55;;;7.10;93.60;;;;;;4995097;28;20440;-72
2021/10/24 01:47:20;;;;;;;17.15;8.27;;;7.00;93.90;;;;;;5011162;28;20453;-72
2021/10/24 01:49:45;;;;;;;14.93;8.32;;;7.00;93.70;;;;;;5011761;28;20061;-72
2021/10/24 01:52:11;;;;;;;12.10;7.90;;;7.00;93.70;;;;;;5029553;28;20072;-72
2021/10/24 01:54:36;;;;;;;14.52;8.57;;;7.00;93.70;;;;;;5008157;28;20033;-72
2021/10/24 01:57:02;;;;;;;13.50;8.55;;;7.00;93.70;;;;;;5028299;28;20033;-72
2021/10/24 01:59:28;;;;;;;16.58;8.48;;;7.00;93.70;;;;;;5007582;28;20118;-72
2021/10/24 02:01:53;;;;;;;17.40;9.63;;;7.00;93.70;;;;;;5028013;28;20037;-72
2021/10/24 02:04:19;;;;;;;11.95;8.32;;;7.00;93.70;;;;;;5011080;28;20033;-72
2021/10/24 02:06:45;;;;;;;15.13;8.73;;;7.00;93.70;;;;;;4994976;28;20150;-72
2021/10/24 02:09:10;;;;;;;15.50;8.88;;;7.00;93.70;;;;;;5011145;28;20032;-74
2021/10/24 02:11:36;;;;;;;14.50;7.15;;;6.90;93.60;;;;;;4995200;28;20382;-72
2021/10/24 02:14:02;;;;;;;12.10;7.38;;;6.90;93.60;;;;;;5010268;28;20037;-72
2021/10/24 02:16:27;;;;;;;13.52;7.60;;;6.90;93.60;;;;;;4994597;28;20042;-72
2021/10/24 02:18:53;;;;;;;11.18;7.60;;;6.80;93.60;;;;;;5027743;28;20032;-72
2021/10/24 02:21:19;;;;;;;12.20;7.68;;;6.80;93.60;;;;;;4994937;28;20407;-72
2021/10/24 02:23:44;;;;;;;9.25;7.15;;;6.80;93.60;;;;;;5010040;28;20038;-72
2021/10/24 02:26:10;;;;;;;12.00;7.53;;;6.70;93.60;;;;;;5028871;28;20036;-72
2021/10/24 02:28:37;;;;;;;14.20;8.30;;;6.70;93.50;;;;;;5013105;28;20029;-72
2021/10/24 02:31:03;;;;;;;13.48;7.65;;;6.60;93.50;;;;;;5010993;28;20057;-72
2021/10/24 02:33:28;;;;;;;14.77;7.30;;;6.60;93.50;;;;;;5027552;28;20056;-71
2021/10/24 02:35:54;;;;;;;14.98;7.68;;;6.60;93.50;;;;;;4994421;28;20034;-72
2021/10/24 02:38:20;;;;;;;13.45;7.75;;;6.50;93.50;;;;;;4994328;28;20025;-72
2021/10/24 02:40:46;;;;;;;13.45;7.50;;;6.50;93.50;;;;;;5011134;28;20030;-72
2021/10/24 02:43:12;;;;;;;13.13;7.40;;;6.50;93.50;;;;;;5010767;28;20022;-72
2021/10/24 02:45:38;;;;;;;13.70;7.68;;;6.50;93.40;;;;;;5010306;28;20061;-72
2021/10/24 02:48:08;;;;;;;12.95;7.90;;;6.50;93.50;;;;;;4994375;28;20086;-72
2021/10/24 02:50:33;;;;;;;11.02;7.30;;;6.50;93.50;;;;;;5010687;28;20529;-72
2021/10/24 02:52:59;;;;;;;8.70;6.70;;;6.50;93.50;;;;;;5023580;28;20116;-72
2021/10/24 02:55:24;;;;;;;12.82;6.32;;;6.50;93.50;;;;;;4994092;28;20541;-72
2021/10/24 02:57:50;;;;;;;10.05;6.80;;;6.50;93.50;;;;;;4994056;28;20041;-72
2021/10/24 03:00:16;;;;;;;13.45;7.35;;;6.50;93.50;;;;;;5010285;28;20074;-72
2021/10/24 03:02:44;;;;;;;9.93;6.43;;;6.50;93.50;;;;;;5010268;28;20064;-72
2021/10/24 03:05:09;;;;;;;10.85;6.03;;;6.60;93.60;;;;;;4994481;28;20454;-72
2021/10/24 03:07:36;;;;;;;11.50;6.10;;;6.60;93.60;;;;;;5009469;28;20029;-72
2021/10/24 03:10:03;;;;;;;14.38;7.05;;;6.60;93.60;;;;;;4993932;28;20137;-72
2021/10/24 03:12:29;;;;;;;10.93;6.07;;;6.60;93.60;;;;;;5027484;28;20025;-71
2021/10/24 03:14:55;;;;;;;12.27;6.55;;;6.60;93.60;;;;;;5010106;28;20040;-72
2021/10/24 03:17:20;;;;;;;8.65;6.20;;;6.60;93.60;;;;;;5042961;28;20034;-72
2021/10/24 03:19:46;;;;;;;10.32;6.50;;;6.60;93.50;;;;;;5026027;28;20033;-72
2021/10/24 03:22:11;;;;;;;7.60;5.88;;;6.60;93.50;;;;;;5026187;28;20029;-72
2021/10/24 03:24:38;;;;;;;12.05;6.75;;;6.60;93.50;;;;;;4994475;28;20026;-72
2021/10/24 03:27:04;;;;;;;14.80;6.45;;;6.60;93.50;;;;;;4993280;28;20678;-72
2021/10/24 03:29:29;;;;;;;11.43;5.57;;;6.50;93.40;;;;;;5009048;28;20033;-72
2021/10/24 03:31:55;;;;;;;9.82;6.20;;;6.50;93.50;;;;;;5027138;28;20125;-72
2021/10/24 03:34:21;;;;;;;10.15;6.95;;;6.50;93.40;;;;;;5009552;28;20039;-72
2021/10/24 03:36:47;;;;;;;10.00;6.97;;;6.40;93.40;;;;;;4992897;28;20038;-71
2021/10/24 03:39:13;;;;;;;12.52;6.82;;;6.50;93.50;;;;;;4993608;28;20550;-72
2021/10/24 03:41:38;;;;;;;9.60;6.15;;;6.40;93.50;;;;;;5027283;28;20033;-72
2021/10/24 03:44:04;;;;;;;16.90;7.93;;;6.40;93.50;;;;;;4993495;28;20383;-72
2021/10/24 03:46:35;;;;;;;9.68;5.65;;;6.40;93.50;;;;;;5027315;28;20605;-72
2021/10/24 03:49:01;;;;;;;10.38;6.10;;;6.40;93.40;;;;;;5009927;28;20048;-72
2021/10/24 03:51:28;;;;;;;14.15;6.15;;;6.30;93.40;;;;;;5008614;28;20033;-72
2021/10/24 03:53:53;;;;;;;11.00;6.30;;;6.30;93.40;;;;;;5042798;28;20460;-72
2021/10/24 03:56:19;;;;;;;14.30;6.07;;;6.30;93.40;;;;;;5026456;28;20077;-72
2021/10/24 03:58:44;;;;;;;11.50;5.88;;;6.30;93.40;;;;;;5009849;28;20045;-71
2021/10/24 04:01:11;;;;;;;10.02;5.53;;;6.30;93.40;;;;;;4993078;28;20040;-71
2021/10/24 04:03:37;;;;;;;10.20;5.88;;;6.30;93.40;;;;;;5008810;28;20152;-71
2021/10/24 04:06:05;;;;;;;10.38;6.30;;;6.30;93.40;;;;;;5026902;28;20105;-71
2021/10/24 04:08:31;;;;;;;14.07;6.53;;;6.20;93.30;;;;;;5010348;28;20389;-71
2021/10/24 04:10:57;;;;;;;9.75;6.03;;;6.20;93.30;;;;;;5026527;28;20126;-71
2021/10/24 04:13:24;;;;;;;11.07;6.07;;;6.20;93.30;;;;;;4991002;28;20448;-71
2021/10/24 04:15:49;;;;;;;9.82;6.50;;;6.20;93.40;;;;;;5009416;28;20086;-71
2021/10/24 04:18:15;;;;;;;11.45;6.65;;;6.10;93.30;;;;;;5008785;28;20022;-71
2021/10/24 04:20:41;;;;;;;12.20;6.43;;;6.10;93.30;;;;;;5010591;28;20037;-71
2021/10/24 04:23:07;;;;;;;10.68;6.47;;;6.10;93.30;;;;;;5025667;28;20029;-72
2021/10/24 04:25:33;;;;;;;10.90;5.78;;;6.10;93.30;;;;;;5026462;28;20386;-72
2021/10/24 04:27:59;;;;;;;11.75;5.88;;;6.10;93.40;;;;;;5025480;28;20029;-72
2021/10/24 04:30:24;;;;;;;13.40;6.80;;;6.10;93.40;;;;;;5006767;28;20078;-72
2021/10/24 04:32:50;;;;;;;13.13;6.70;;;6.10;93.40;;;;;;5026877;28;20490;-72
2021/10/24 04:35:16;;;;;;;10.95;5.57;;;6.10;93.40;;;;;;4991908;28;20038;-72
2021/10/24 04:37:42;;;;;;;11.38;6.38;;;6.00;93.30;;;;;;5026339;28;20084;-71
2021/10/24 04:40:09;;;;;;;10.93;6.22;;;6.00;93.40;;;;;;5025167;28;20064;-71
2021/10/24 04:42:35;;;;;;;12.77;6.57;;;6.00;93.40;;;;;;5007557;28;20029;-72
2021/10/24 04:45:04;;;;;;;15.43;6.68;;;6.00;93.40;;;;;;4991733;28;20045;-72
2021/10/24 04:47:29;;;;;;;11.70;6.43;;;6.00;93.40;;;;;;5008265;28;20082;-71
2021/10/24 04:49:55;;;;;;;14.50;6.60;;;6.00;93.40;;;;;;4992121;28;20033;-72
2021/10/24 04:52:20;;;;;;;9.63;5.45;;;5.90;93.60;;;;;;4992416;28;20022;-71
2021/10/24 04:54:46;;;;;;;12.90;6.47;;;5.90;93.30;;;;;;5008586;28;20037;-72
2021/10/24 04:57:12;;;;;;;10.88;5.75;;;5.90;93.30;;;;;;5008277;28;20686;-72
2021/10/24 04:59:37;;;;;;;8.10;5.57;;;5.90;93.30;;;;;;4992428;28;20044;-72
2021/10/24 05:02:03;;;;;;;12.25;6.13;;;5.90;93.30;;;;;;5026253;28;20058;-72
2021/10/24 05:04:29;;;;;;;10.65;6.05;;;5.80;93.20;;;;;;5025467;28;20116;-72
2021/10/24 05:06:55;;;;;;;8.77;6.07;;;5.80;93.20;;;;;;4992226;28;20125;-72
2021/10/24 05:09:20;;;;;;;15.88;5.93;;;5.80;93.20;;;;;;5005216;28;20032;-72
2021/10/24 05:11:46;;;;;;;9.70;6.00;;;5.70;93.20;;;;;;5041157;28;20029;-71
2021/10/24 05:14:12;;;;;;;11.05;6.40;;;5.70;93.20;;;;;;5025013;28;20118;-71
2021/10/24 05:16:37;;;;;;;10.18;6.10;;;5.70;93.20;;;;;;5008466;28;20057;-72
2021/10/24 05:19:03;;;;;;;11.93;6.30;;;5.60;93.20;;;;;;5008333;28;20025;-72
2021/10/24 05:21:30;;;;;;;11.10;6.22;;;5.60;93.20;;;;;;5007200;28;20032;-71
2021/10/24 05:23:56;;;;;;;10.82;5.18;;;5.60;93.20;;;;;;5008287;28;20033;-71
2021/10/24 05:26:22;;;;;;;12.80;6.03;;;5.50;93.30;;;;;;4991731;28;20778;-72
2021/10/24 05:28:47;;;;;;;10.38;6.00;;;5.50;93.30;;;;;;5008059;28;20093;-71
2021/10/24 05:31:13;;;;;;;12.63;5.30;;;5.60;93.30;;;;;;4992061;28;20129;-72
2021/10/24 05:33:39;;;;;;;10.48;5.18;;;5.50;93.30;;;;;;5008383;28;20032;-72
2021/10/24 05:36:05;;;;;;;14.02;5.18;;;5.50;93.30;;;;;;5008389;28;20030;-72
2021/10/24 05:38:31;;;;;;;13.18;5.85;;;5.50;93.20;;;;;;5008338;28;20029;-72
2021/10/24 05:40:57;;;;;;;11.93;5.57;;;5.40;93.20;;;;;;5010996;28;20029;-71
2021/10/24 05:43:22;;;;;;;10.40;5.50;;;5.40;93.10;;;;;;5008278;28;20030;-72
2021/10/24 05:45:48;;;;;;;9.13;5.57;;;5.40;93.10;;;;;;5024458;28;20041;-71
2021/10/24 05:48:15;;;;;;;9.68;5.97;;;5.40;93.20;;;;;;5008145;28;20059;-71
2021/10/24 05:50:41;;;;;;;11.20;5.72;;;5.30;93.10;;;;;;5025595;28;20038;-72
2021/10/24 05:53:07;;;;;;;12.98;5.50;;;5.30;93.20;;;;;;5028232;28;20029;-71
2021/10/24 05:55:33;;;;;;;9.35;5.20;;;5.20;93.10;;;;;;5026299;28;20033;-72
2021/10/24 05:57:59;;;;;;;11.05;6.25;;;5.20;93.20;;;;;;5027667;28;20063;-72
2021/10/24 06:00:25;;;;;;;8.63;5.10;;;5.20;93.20;;;;;;4995190;28;20033;-72
2021/10/24 06:02:51;;;;;;;9.27;5.60;;;5.20;93.20;;;;;;5011125;28;20029;-72
2021/10/24 06:05:17;;;;;;;8.85;5.70;;;5.20;93.20;;;;;;5028863;28;20033;-71
2021/10/24 06:07:42;;;;;;;11.68;5.65;;;5.20;93.20;;;;;;5010987;28;20151;-72
2021/10/24 06:10:21;;;;;;;7.65;5.15;;;5.20;93.30;;;;;;5011448;28;20095;-72
2021/10/24 06:12:51;;;;;;;8.55;5.07;;;5.10;93.20;;;;;;5044091;28;20050;-72
2021/10/24 06:15:19;;;;;;;12.70;5.60;;;5.10;93.20;;;;;;5010962;28;20037;-72
2021/10/24 06:17:46;;;;;;;12.20;6.55;;;5.10;93.20;;;;;;5029178;28;20100;-71
2021/10/24 06:20:13;;;;;;;10.63;5.82;;;5.10;93.20;;;;;;5012249;28;20030;-71
2021/10/24 06:22:40;;;;;;;11.10;6.32;;;5.00;93.50;;;;;;5011098;28;20102;-72
2021/10/24 06:25:07;;;;;;;11.50;6.03;;;5.00;93.30;;;;;;5010566;28;20036;-72
2021/10/24 06:27:41;;;;;;;9.95;5.40;;;5.00;93.30;;;;;;5028366;28;20022;-72
2021/10/24 06:30:09;;;;;;;11.80;5.75;;;5.00;93.30;;;;;;5027867;28;20104;-72
2021/10/24 06:32:35;;;;;;;13.90;5.72;;;5.00;93.30;;;;;;5028833;28;20032;-71
2021/10/24 06:35:01;;;;;;;9.18;6.20;;;5.00;93.30;;;;;;5010271;28;20081;-72
2021/10/24 06:37:30;;;;;;;9.00;6.32;;;5.10;93.30;;;;;;5028635;28;20120;-72
2021/10/24 06:39:55;;;;;;;15.82;6.75;;;5.10;93.30;;;;;;5010841;28;20407;-71
2021/10/24 06:42:21;;;;;;;12.57;6.28;;;5.10;93.30;;;;;;5010362;28;20038;-71
2021/10/24 06:44:47;;;;;;;18.88;8.35;;;5.10;93.30;;;;;;5008046;28;20069;-72
2021/10/24 06:47:12;;;;;;;16.35;7.38;;;5.10;93.30;;;;;;5010764;28;20084;-71
2021/10/24 06:49:38;;;;;;;12.23;7.82;;;5.20;93.40;;;;;;5010654;28;20022;-71
2021/10/24 06:52:05;;;;;;;15.20;8.23;;;5.20;93.40;;;;;;5009340;28;20394;-71
2021/10/24 06:54:34;;;;;;;12.80;7.88;;;5.20;93.40;;;;;;5010521;28;20076;-72
2021/10/24 06:57:00;;;;;;;;;;;5.30;93.40;;;;;;5026525;28;20040;-71
2021/10/24 06:59:26;;;;;;;13.25;7.97;;;5.30;93.40;;;;;;5021833;28;19913;-73
2021/10/24 07:01:52;;;;;;;13.30;7.50;;;5.30;93.40;;;;;;5011105;28;20053;-73
2021/10/24 07:04:17;;;;;;;18.38;8.88;;;5.40;93.50;;;;;;5015570;28;20064;-74
2021/10/24 07:06:43;;;;;;;20.70;9.32;;;5.40;93.50;;;;;;5029446;28;20036;-74
2021/10/24 07:09:08;;;;;;;20.02;9.18;;;5.50;93.50;;;;;;4995427;28;20032;-74
2021/10/24 07:11:34;;;;;;;17.52;9.50;;;5.60;93.50;;;;;;5030051;28;20013;-73
2021/10/24 07:14:00;;;;;;;13.82;8.98;;;5.60;93.50;;;;;;5010861;28;20040;-73
2021/10/24 07:16:25;;;;;;;22.55;9.38;;;5.70;93.50;;;;;;5012919;28;20026;-74
2021/10/24 07:18:52;;;;;;;17.15;8.80;;;5.70;93.50;;;;;;5030190;28;20038;-75
2021/10/24 07:21:17;;;;;;;18.75;9.57;;;5.80;93.50;;;;;;5030880;28;20045;-74
2021/10/24 07:23:43;;;;;;;19.40;9.43;;;5.90;93.50;;;;;;5030906;28;20037;-74
2021/10/24 07:26:09;;;;;;;16.50;9.05;;;6.10;93.50;;;;;;5012375;28;20109;-74
2021/10/24 07:28:34;;;;;;;19.08;9.73;;;6.20;93.40;;;;;;4995221;28;20037;-74
2021/10/24 07:31:00;;;;;;;12.60;8.10;;;6.30;93.30;;;;;;5010181;28;20049;-74
2021/10/24 07:33:27;;;;;;;16.95;9.88;;;6.40;93.20;;;;;;5009513;28;20081;-74
2021/10/24 07:35:52;;;;;;;15.15;8.82;;;6.50;93.10;;;;;;5011985;28;20037;-74
2021/10/24 07:38:18;;;;;;;16.27;9.23;;;6.60;93.10;;;;;;5011499;28;20120;-74
2021/10/24 07:40:49;;;;;;;16.52;9.00;;;6.70;93.00;;;;;;5009876;28;20031;-74
2021/10/24 07:43:17;;;;;;;16.27;9.50;;;6.70;93.00;;;;;;4993062;28;20082;-74
2021/10/24 07:45:43;;;;;;;17.27;9.35;;;6.80;92.90;;;;;;5026018;28;20426;-74
2021/10/24 07:48:12;;;;;;;19.80;9.23;;;6.90;92.90;;;;;;5013247;28;20108;-74
2021/10/24 07:50:38;;;;;;;15.05;9.50;;;6.90;92.80;;;;;;5010870;28;20029;-74
2021/10/24 07:53:04;;;;;;;19.33;9.50;;;7.00;92.70;;;;;;5027770;28;20026;-75
2021/10/24 07:55:30;;;;;;;20.20;8.88;;;7.10;92.70;;;;;;5027902;28;20544;-75
2021/10/24 07:57:58;;;;;;;19.90;9.15;;;7.10;92.60;;;;;;5027924;28;20026;-74
2021/10/24 08:00:24;;;;;;;20.02;9.85;;;7.30;92.60;;;;;;5011449;28;20478;-74
2021/10/24 08:02:51;;;;;;;17.05;9.40;;;7.40;92.60;;;;;;5011164;28;20051;-74
2021/10/24 08:05:18;;;;;;;17.35;8.98;;;7.40;92.50;;;;;;5010103;28;20040;-74
2021/10/24 08:07:44;;;;;;;18.80;8.60;;;7.50;92.50;;;;;;5028765;28;20034;-75
2021/10/24 08:10:11;;;;;;;16.65;10.10;;;7.60;92.40;;;;;;5010798;28;20395;-75
2021/10/24 08:12:38;;;;;;;14.63;9.75;;;7.70;92.40;;;;;;5013247;28;20553;-75
2021/10/24 08:15:04;;;;;;;17.35;9.77;;;7.70;92.20;;;;;;5016345;28;20466;-75
2021/10/24 08:17:30;;;;;;;15.13;8.65;;;7.80;92.10;;;;;;4996411;28;20033;-74
2021/10/24 08:19:56;;;;;;;16.17;8.77;;;7.90;92.10;;;;;;5012444;28;20038;-75
2021/10/24 08:22:23;;;;;;;17.30;8.73;;;8.00;92.00;;;;;;5012154;28;20474;-74
2021/10/24 08:24:48;;;;;;;17.73;9.13;;;8.00;91.90;;;;;;5029688;28;20054;-74
2021/10/24 08:27:14;;;;;;;20.30;9.80;;;8.10;91.90;;;;;;5027740;28;20068;-73
2021/10/24 08:29:40;;;;;;;22.33;11.00;;;8.20;91.80;;;;;;5009268;28;20037;-73
2021/10/24 08:32:09;;;;;;;20.92;11.15;;;8.20;91.70;;;;;;5027157;28;20021;-72
2021/10/24 08:34:39;;;;;;;;;;;8.30;91.70;;;;;;4993837;28;20068;-73
2021/10/24 08:37:05;;;;;;;13.80;8.35;;;8.40;91.60;;;;;;5008653;28;19917;-73
2021/10/24 08:39:31;;;;;;;18.02;9.48;;;8.50;91.50;;;;;;5026588;28;20105;-73
2021/10/24 08:41:57;;;;;;;16.70;9.18;;;8.50;91.40;;;;;;5009574;28;20503;-73
2021/10/24 08:44:25;;;;;;;12.90;7.93;;;8.60;91.50;;;;;;5032282;28;20171;-73
2021/10/24 08:46:51;;;;;;;16.20;7.95;;;8.70;91.00;;;;;;4993063;28;20037;-74
2021/10/24 08:49:18;;;;;;;12.95;7.63;;;8.70;91.00;;;;;;5009091;28;20030;-75
2021/10/24 08:51:43;;;;;;;15.20;8.27;;;8.80;91.20;;;;;;5027456;28;20078;-74
2021/10/24 08:54:10;;;;;;;16.05;7.93;;;8.80;90.90;;;;;;5008834;28;20041;-74
2021/10/24 08:56:37;;;;;;;15.23;7.65;;;8.90;90.90;;;;;;5026988;28;20024;-73
2021/10/24 08:59:03;;;;;;;14.25;8.02;;;9.00;90.80;;;;;;5009206;28;20029;-74
2021/10/24 09:01:30;;;;;;;12.50;7.25;;;9.10;90.60;;;;;;5027268;28;20128;-74
2021/10/24 09:04:08;;;;;;;12.25;7.18;;;9.20;90.60;;;;;;5009156;28;20055;-73
2021/10/24 09:06:49;;;;;;;13.43;7.30;;;9.40;90.60;;;;;;5027173;28;20034;-74
2021/10/24 09:09:19;;;;;;;13.38;6.55;;;9.50;90.40;;;;;;5026901;28;20108;-73
2021/10/24 09:11:55;;;;;;;11.75;6.55;;;9.50;90.30;;;;;;5027965;28;20040;-73
2021/10/24 09:14:41;;;;;;;11.52;6.15;;;9.70;90.20;;;;;;5027937;28;20033;-74
2021/10/24 09:17:09;;;;;;;10.85;6.07;;;9.80;90.10;;;;;;5027724;28;20034;-74
2021/10/24 09:19:37;;;;;;;11.48;5.82;;;9.80;90.00;;;;;;5010226;28;20375;-74
2021/10/24 09:22:27;;;;;;;10.43;5.43;;;9.90;89.70;;;;;;5027466;28;20029;-74
2021/10/24 09:25:00;;;;;;;13.05;5.72;;;10.00;89.00;;;;;;5027544;28;20029;-73
2021/10/24 09:27:26;;;;;;;10.05;5.88;;;10.10;88.80;;;;;;5011359;28;20026;-73
2021/10/24 09:29:52;;;;;;;13.73;5.70;;;10.20;88.70;;;;;;5031301;28;20033;-74
2021/10/24 09:32:17;;;;;;;11.27;5.63;;;10.20;88.40;;;;;;4997300;28;20040;-74
2021/10/24 09:34:45;;;;;;;12.10;6.03;;;10.30;88.20;;;;;;5030706;28;20078;-74
2021/10/24 09:37:18;;;;;;;9.63;5.87;;;10.30;88.20;;;;;;5013063;28;20456;-73
2021/10/24 09:39:44;;;;;;;9.75;5.55;;;10.40;88.20;;;;;;5012828;28;20296;-74
2021/10/24 09:42:16;;;;;;;12.05;5.53;;;10.60;87.90;;;;;;5030747;28;20432;-73
2021/10/24 09:45:09;;;;;;;11.48;5.65;;;10.70;87.30;;;;;;5009556;28;20054;-74
2021/10/24 09:47:46;;;;;;;9.55;5.10;;;10.70;87.00;;;;;;5010729;28;20026;-74
2021/10/24 09:50:30;;;;;;;9.57;5.00;;;10.80;87.00;;;;;;5008950;28;20510;-73
2021/10/24 09:53:42;;;;;;;9.35;4.78;;;10.90;87.00;;;;;;5009444;28;20037;-73
2021/10/24 09:56:14;;;;;;;8.18;4.70;;;11.10;86.30;;;;;;5013252;28;20038;-74
2021/10/24 09:58:41;;;;;;;10.82;4.82;;;11.10;85.70;;;;;;5010678;28;20101;-74
2021/10/24 10:01:10;;;;;;;11.95;4.82;;;11.20;85.90;;;;;;5009021;28;20037;-74
2021/10/24 10:03:40;;;;;;;7.78;4.60;;;11.30;85.70;;;;;;5008753;28;20539;-73
2021/10/24 10:06:05;;;;;;;8.00;4.65;;;11.40;85.40;;;;;;5008723;28;20469;-73
2021/10/24 10:08:32;;;;;;;10.32;5.35;;;11.40;85.10;;;;;;5008950;28;20063;-74
2021/10/24 10:11:10;;;;;;;10.48;4.63;;;11.50;84.60;;;;;;5009050;28;20030;-74
2021/10/24 10:13:40;;;;;;;9.13;4.97;;;11.60;84.50;;;;;;5010208;28;20022;-74
2021/10/24 10:16:09;;;;;;;7.93;4.80;;;11.70;83.60;;;;;;5009699;28;20037;-74
2021/10/24 10:18:57;;;;;;;7.10;4.63;;;11.70;83.60;;;;;;5009889;28;20025;-74
2021/10/24 10:21:33;;;;;;;8.07;4.63;;;11.80;83.40;;;;;;5010022;28;20367;-74
2021/10/24 10:24:00;;;;;;;8.52;4.55;;;11.90;83.20;;;;;;5008633;28;20113;-74
2021/10/24 10:26:54;;;;;;;6.47;3.80;;;11.90;83.00;;;;;;5008469;28;20022;-73
2021/10/24 10:29:50;;;;;;;9.73;4.57;;;12.00;82.20;;;;;;5009937;28;20067;-73
2021/10/24 10:32:18;;;;;;;10.65;4.32;;;12.00;82.20;;;;;;5008205;28;20508;-74
2021/10/24 10:35:12;;;;;;;10.13;4.07;;;12.10;82.40;;;;;;5008490;28;20449;-74
2021/10/24 10:37:51;;;;;;;8.38;3.97;;;12.30;81.40;;;;;;5008133;28;20652;-73
2021/10/24 10:40:28;;;;;;;6.17;4.13;;;12.30;81.20;;;;;;5007486;28;20022;-74
2021/10/24 10:43:13;;;;;;;8.48;4.22;;;12.30;81.20;;;;;;5009770;28;20109;-74
2021/10/24 10:45:43;;;;;;;8.45;4.38;;;12.40;81.30;;;;;;5026008;28;20167;-74
2021/10/24 10:48:24;;;;;;;6.68;4.15;;;12.50;81.00;;;;;;5011467;28;20492;-74
2021/10/24 10:50:59;;;;;;;10.90;4.10;;;12.60;80.00;;;;;;5011915;28;20025;-74
2021/10/24 10:53:30;;;;;;;7.10;3.97;;;12.70;80.00;;;;;;5029586;28;20030;-73
2021/10/24 10:55:56;;;;;;;8.60;3.47;;;12.70;79.90;;;;;;5011857;28;20018;-74
2021/10/24 10:58:34;;;;;;;10.30;4.28;;;12.80;78.90;;;;;;5011556;28;20116;-74
2021/10/24 11:01:01;;;;;;;5.55;3.22;;;12.90;79.20;;;;;;5029255;28;20037;-74
2021/10/24 11:03:49;;;;;;;8.05;3.63;;;13.00;79.10;;;;;;5028783;28;20029;-74
2021/10/24 11:06:27;;;;;;;8.88;3.38;;;13.00;76.90;;;;;;5028545;28;20423;-74
2021/10/24 11:08:59;;;;;;;7.05;3.45;;;13.10;77.30;;;;;;5028900;28;20022;-74
2021/10/24 11:11:40;;;;;;;8.18;3.28;;;13.20;75.70;;;;;;5029078;28;20034;-74
2021/10/24 11:14:11;;;;;;;10.65;3.35;;;13.20;75.60;;;;;;5029155;28;20443;-74
2021/10/24 11:16:43;;;;;;;4.72;2.90;;;13.20;75.90;;;;;;5028907;28;20504;-74
2021/10/24 11:19:32;;;;;;;6.50;3.40;;;13.30;76.70;;;;;;5028313;28;20067;-73
2021/10/24 11:22:01;;;;;;;6.80;2.90;;;13.40;75.20;;;;;;5018919;28;20124;-73
2021/10/24 11:24:26;;;;;;;;;;;13.40;75.00;;;;;;5029334;28;20105;-74
2021/10/24 11:26:59;;;;;;;6.80;3.13;;;13.50;75.80;;;;;;5028804;28;19995;-74
2021/10/24 11:29:26;;;;;;;6.47;3.03;;;13.50;74.60;;;;;;5011274;28;20481;-74
2021/10/24 11:32:18;;;;;;;5.35;2.78;;;13.50;74.50;;;;;;5028338;28;20096;-74
2021/10/24 11:34:44;;;;;;;7.65;3.10;;;13.50;74.60;;;;;;5028107;28;20056;-73
2021/10/24 11:37:10;;;;;;;5.43;3.22;;;13.60;74.60;;;;;;5028052;28;20025;-73
2021/10/24 11:39:37;;;;;;;7.70;2.70;;;13.60;74.00;;;;;;5028407;28;20442;-74
2021/10/24 11:42:08;;;;;;;4.90;2.70;;;13.60;74.10;;;;;;5028449;28;20486;-75
2021/10/24 11:44:34;;;;;;;8.07;2.80;;;13.70;74.60;;;;;;5028032;28;20049;-74
2021/10/24 11:47:13;;;;;;;6.93;3.08;;;13.80;74.50;;;;;;5028107;28;20565;-74
2021/10/24 11:49:48;;;;;;;7.43;2.97;;;13.90;72.70;;;;;;5010750;28;20390;-75
2021/10/24 11:52:29;;;;;;;5.55;2.72;;;13.90;72.30;;;;;;5010857;28;20406;-74
2021/10/24 11:55:11;;;;;;;5.70;2.80;;;13.90;72.50;;;;;;5028030;28;20086;-74
2021/10/24 12:00:38;;;;;;;4.88;2.92;;;14.00;72.00;;;;;;5010871;28;20044;-74
2021/10/24 12:03:03;;;;;;;5.15;2.75;;;14.10;72.20;;;;;;5010369;28;20037;-74
2021/10/24 12:05:31;;;;;;;8.07;2.90;;;14.10;72.50;;;;;;5028013;28;20034;-74
2021/10/24 12:07:58;;;;;;;7.05;2.92;;;14.10;72.40;;;;;;5028206;28;20037;-74
2021/10/24 12:10:48;;;;;;;4.93;2.92;;;14.20;70.30;;;;;;5027982;28;20033;-74
2021/10/24 12:13:34;;;;;;;6.95;3.33;;;14.20;71.20;;;;;;5030634;28;20083;-74
2021/10/24 12:16:02;;;;;;;5.97;3.50;;;14.20;70.90;;;;;;5010102;28;20029;-74
2021/10/24 12:18:28;;;;;;;5.75;2.88;;;14.20;70.60;;;;;;5027822;28;20569;-74
2021/10/24 12:20:59;;;;;;;9.85;3.53;;;14.10;71.10;;;;;;5009926;28;20041;-74
2021/10/24 12:23:37;;;;;;;9.00;3.05;;;14.10;71.00;;;;;;5028010;28;20490;-74
2021/10/24 12:26:06;;;;;;;6.82;3.35;;;14.10;72.20;;;;;;5027493;28;20078;-74
2021/10/24 12:28:39;;;;;;;5.45;3.58;;;14.20;72.10;;;;;;5027726;28;20037;-74
2021/10/24 12:31:19;;;;;;;13.52;3.97;;;14.30;71.50;;;;;;5027867;28;20032;-74
2021/10/24 12:33:46;;;;;;;6.15;3.80;;;14.30;71.10;;;;;;5026959;28;20457;-74
2021/10/24 12:36:29;;;;;;;10.18;4.20;;;14.30;70.90;;;;;;5027370;28;20040;-75
2021/10/24 12:38:57;;;;;;;6.00;3.63;;;14.30;70.50;;;;;;5027549;28;20039;-74
2021/10/24 12:41:41;;;;;;;12.10;4.27;;;14.30;70.60;;;;;;5010347;28;20097;-74
2021/10/24 12:44:29;;;;;;;7.70;3.92;;;14.40;70.60;;;;;;5025939;28;20292;-74
2021/10/24 12:46:54;;;;;;;10.98;4.10;;;14.40;70.20;;;;;;5010585;28;20034;-75
2021/10/24 12:49:25;;;;;;;7.68;3.90;;;14.40;69.10;;;;;;5049676;27;20505;-75
2021/10/24 12:52:07;;;;;;;5.53;3.50;;;14.40;69.80;;;;;;5025958;28;20025;-75
2021/10/24 12:54:33;;;;;;;5.43;3.70;;;14.40;69.90;;;;;;5015960;28;20367;-74
2021/10/24 12:56:59;;;;;;;4.43;3.30;;;14.50;69.60;;;;;;5009552;28;20044;-75
2021/10/24 12:59:25;;;;;;;7.88;3.30;;;14.40;69.10;;;;;;5026648;28;20528;-74